Terminal Aerodrome Forecast
Issued by NWS

Home | Current Version | Previous Version | Text Only | Print | Product List | Glossary On
Versions: 1 2 3 4 5 6 7 8 9 10 11 12 13 14 15 16 17
000
FTUS42 KMLB 232300
TAFISM
TAF
KISM 232333Z 2400/2424 17006KT P6SM SCT035 BKN070
     FM240300 18005KT P6SM FEW008 SCT025 BKN200
     FM240600 19005KT 5SM BR OVC005
      TEMPO 2414/2416 P6SM NSW SCT005 BKN008
     FM241600 20011KT P6SM BKN020
      AMD NOT SKED 2403/2412=

USA.gov is the U.S. government's official web portal to all federal, state and local government web resources and services.